createdAt,value
2022-09-23T00:02:14.979Z,73.36
2022-09-23T00:04:43.112Z,73.16
2022-09-23T00:07:11.290Z,73.29
2022-09-23T00:09:40.855Z,73.79
2022-09-23T00:12:10.274Z,73.38
2022-09-23T00:14:39.887Z,73.50
2022-09-23T00:17:08.033Z,73.39
2022-09-23T00:19:36.280Z,73.32
2022-09-23T00:22:04.645Z,73.46
2022-09-23T00:24:33.687Z,73.81
2022-09-23T00:27:03.681Z,73.87
2022-09-23T00:29:31.977Z,73.44
2022-09-23T00:32:00.196Z,73.57
2022-09-23T00:34:29.128Z,73.29
2022-09-23T00:36:57.400Z,73.56
2022-09-23T00:39:26.469Z,73.51
2022-09-23T00:41:55.996Z,73.84
2022-09-23T00:44:49.569Z,73.86
2022-09-23T00:47:24.017Z,73.39
2022-09-23T00:50:01.717Z,73.29
2022-09-23T00:52:31.603Z,73.64
2022-09-23T00:55:02.233Z,73.83
2022-09-23T00:57:31.230Z,73.57
2022-09-23T01:00:01.409Z,73.76
2022-09-23T01:02:29.613Z,73.85
2022-09-23T01:05:00.249Z,73.83
2022-09-23T01:07:28.418Z,74.01
2022-09-23T01:09:57.216Z,73.96
2022-09-23T01:12:42.044Z,73.69
2022-09-23T01:15:18.066Z,73.91
2022-09-23T01:17:57.579Z,73.87
2022-09-23T01:20:47.470Z,73.97
2022-09-23T01:23:41.808Z,74.46
2022-09-23T01:26:50.122Z,74.18
2022-09-23T01:30:05.673Z,74.13
2022-09-23T01:33:01.134Z,74.53
2022-09-23T01:35:42.897Z,74.59
2022-09-23T01:38:24.630Z,74.40
2022-09-23T01:41:03.362Z,73.98
2022-09-23T01:43:41.975Z,74.46
2022-09-23T01:46:17.624Z,74.48
2022-09-23T01:48:55.861Z,74.07
2022-09-23T01:51:28.374Z,73.98
2022-09-23T01:54:04.448Z,74.71
2022-09-23T01:56:37.315Z,74.28
2022-09-23T01:59:13.648Z,74.43
2022-09-23T02:01:47.582Z,74.18
2022-09-23T02:04:22.344Z,74.49
2022-09-23T02:06:57.986Z,74.48
2022-09-23T02:09:32.466Z,74.02
2022-09-23T02:12:05.859Z,74.26
2022-09-23T02:14:40.171Z,73.82
2022-09-23T02:17:13.070Z,74.30
2022-09-23T02:19:48.846Z,74.43
2022-09-23T02:22:24.601Z,73.81
2022-09-23T02:24:54.713Z,73.87
2022-09-23T02:27:31.958Z,74.16
2022-09-23T02:30:11.247Z,73.60
2022-09-23T02:32:51.027Z,73.89
2022-09-23T02:35:29.234Z,74.18
2022-09-23T02:38:10.974Z,74.30
2022-09-23T02:40:44.116Z,74.61
2022-09-23T02:43:19.741Z,74.17
2022-09-23T02:45:48.246Z,74.18
2022-09-23T02:48:22.637Z,74.23
2022-09-23T02:50:52.106Z,74.47
2022-09-23T02:53:20.396Z,74.96
2022-09-23T02:55:48.520Z,74.44
2022-09-23T02:58:16.675Z,75.27
2022-09-23T03:01:01.912Z,75.26
2022-09-23T03:03:47.365Z,75.50
2022-09-23T03:06:32.214Z,75.72
2022-09-23T03:09:08.950Z,75.49
2022-09-23T03:11:41.265Z,75.38
2022-09-23T03:14:18.354Z,75.42
2022-09-23T03:16:55.818Z,75.56
2022-09-23T03:19:33.133Z,75.49
2022-09-23T03:22:08.585Z,75.92
2022-09-23T03:24:39.466Z,75.75
2022-09-23T03:27:13.967Z,76.71
2022-09-23T03:29:47.326Z,76.43
2022-09-23T03:32:18.575Z,76.18
2022-09-23T03:34:51.410Z,76.04
2022-09-23T03:37:27.625Z,76.70
2022-09-23T03:40:01.283Z,76.45
2022-09-23T03:42:32.872Z,76.89
2022-09-23T03:45:02.126Z,77.13
2022-09-23T03:47:31.001Z,76.60
2022-09-23T03:49:59.083Z,77.15
2022-09-23T03:52:29.487Z,76.92
2022-09-23T03:54:57.617Z,76.99
2022-09-23T03:57:27.199Z,77.90
2022-09-23T03:59:55.334Z,77.12
2022-09-23T04:02:23.566Z,78.07
2022-09-23T04:04:51.763Z,78.55
2022-09-23T04:07:20.290Z,78.12
2022-09-23T04:09:50.112Z,78.10
2022-09-23T04:12:18.410Z,77.51
2022-09-23T04:14:46.900Z,78.53
2022-09-23T04:17:15.312Z,77.83
2022-09-23T04:19:43.467Z,78.21
2022-09-23T04:22:11.692Z,78.28
2022-09-23T04:24:39.833Z,78.17
2022-09-23T04:27:09.509Z,78.20
2022-09-23T04:29:37.669Z,78.98
2022-09-23T04:32:06.097Z,78.53
2022-09-23T04:34:34.194Z,78.38
2022-09-23T04:37:02.342Z,78.47
2022-09-23T04:39:30.671Z,78.65
2022-09-23T04:41:59.652Z,78.48
2022-09-23T04:44:29.531Z,78.84
2022-09-23T04:46:57.739Z,78.52
2022-09-23T04:49:26.182Z,78.81
2022-09-23T04:51:54.317Z,79.54
2022-09-23T04:54:22.388Z,79.47
2022-09-23T04:56:50.509Z,78.40
2022-09-23T04:59:18.823Z,78.76
2022-09-23T05:01:48.373Z,78.82
2022-09-23T05:04:16.690Z,79.43
2022-09-23T05:06:45.363Z,79.54
2022-09-23T05:09:17.530Z,78.37
2022-09-23T05:11:46.371Z,79.12
2022-09-23T05:14:14.763Z,79.02
2022-09-23T05:16:43.090Z,79.35
2022-09-23T05:19:13.428Z,78.66
2022-09-23T05:21:41.804Z,78.71
2022-09-23T05:24:10.713Z,78.76
2022-09-23T05:26:39.263Z,79.22
2022-09-23T05:29:07.775Z,79.49
2022-09-23T05:31:37.378Z,79.09
2022-09-23T05:34:07.055Z,78.72
2022-09-23T05:36:39.294Z,78.74
2022-09-23T05:39:08.986Z,79.32
2022-09-23T05:41:37.844Z,79.87
2022-09-23T05:44:06.461Z,79.64
2022-09-23T05:46:35.152Z,79.57
2022-09-23T05:49:05.651Z,78.91
2022-09-23T05:51:36.641Z,79.60
2022-09-23T05:54:06.463Z,79.05
2022-09-23T05:56:35.707Z,78.61
2022-09-23T05:59:05.597Z,79.48
2022-09-23T06:01:36.727Z,78.82
2022-09-23T06:04:07.771Z,78.92
2022-09-23T06:06:40.190Z,78.87
2022-09-23T06:09:11.410Z,78.93
2022-09-23T06:11:40.008Z,79.26
2022-09-23T06:14:09.618Z,78.34
2022-09-23T06:16:38.071Z,78.78
2022-09-23T06:19:06.990Z,78.78
2022-09-23T06:21:39.090Z,78.36
2022-09-23T06:24:09.423Z,78.05
2022-09-23T06:26:38.996Z,78.20
2022-09-23T06:29:11.708Z,77.94
2022-09-23T06:31:42.158Z,77.70
2022-09-23T06:34:13.754Z,77.46
2022-09-23T06:36:46.162Z,77.48
2022-09-23T06:39:15.637Z,77.12
2022-09-23T06:41:44.006Z,76.79
2022-09-23T06:44:12.157Z,76.68
2022-09-23T06:46:40.348Z,76.23
2022-09-23T06:49:08.645Z,76.07
2022-09-23T06:51:36.819Z,76.12
2022-09-23T06:54:06.843Z,75.72
2022-09-23T06:56:39.029Z,75.58
2022-09-23T06:59:08.918Z,74.95
2022-09-23T07:01:37.158Z,74.97
2022-09-23T07:04:07.586Z,74.47
2022-09-23T07:06:36.155Z,74.19
2022-09-23T07:09:06.665Z,74.32
2022-09-23T07:11:35.245Z,73.49
2022-09-23T07:14:03.618Z,73.84
2022-09-23T07:16:33.018Z,72.97
2022-09-23T07:19:01.166Z,72.43
2022-09-23T07:21:29.416Z,72.49
2022-09-23T07:23:58.095Z,72.39
2022-09-23T07:26:28.876Z,71.33
2022-09-23T07:29:04.818Z,71.40
2022-09-23T07:31:39.178Z,71.33
2022-09-23T07:34:09.887Z,71.16
2022-09-23T07:36:40.649Z,70.43
2022-09-23T07:39:11.192Z,69.98
2022-09-23T07:41:44.522Z,70.55
2022-09-23T07:44:13.702Z,70.29
2022-09-23T07:46:41.930Z,70.22
2022-09-23T07:49:10.554Z,69.44
2022-09-23T07:51:41.357Z,69.20
2022-09-23T07:54:13.255Z,69.25
2022-09-23T07:56:44.151Z,69.41
2022-09-23T07:59:17.086Z,69.13
2022-09-23T08:01:48.687Z,68.42
2022-09-23T08:04:20.663Z,68.36
2022-09-23T08:06:51.237Z,68.51
2022-09-23T08:09:21.592Z,68.47
2022-09-23T08:11:52.452Z,67.86
2022-09-23T08:14:22.312Z,68.34
2022-09-23T08:16:51.850Z,68.28
2022-09-23T08:19:20.474Z,67.73
2022-09-23T08:21:48.654Z,67.99
2022-09-23T08:24:19.890Z,67.61
2022-09-23T08:26:51.386Z,68.03
2022-09-23T08:29:21.533Z,67.43
2022-09-23T08:31:51.625Z,67.29
2022-09-23T08:34:22.637Z,67.53
2022-09-23T08:36:52.334Z,67.27
2022-09-23T08:39:23.029Z,67.06
2022-09-23T08:42:13.684Z,66.44
2022-09-23T08:44:50.297Z,66.59
2022-09-23T08:47:24.701Z,66.55
2022-09-23T08:50:00.825Z,66.08
2022-09-23T08:52:36.428Z,66.19
2022-09-23T08:55:10.304Z,65.67
2022-09-23T08:58:24.027Z,65.54
2022-09-23T09:01:01.756Z,65.49
2022-09-23T09:03:36.046Z,65.31
2022-09-23T09:06:04.967Z,64.37
2022-09-23T09:08:37.650Z,64.15
2022-09-23T09:11:07.920Z,63.87
2022-09-23T09:13:48.486Z,63.43
2022-09-23T09:16:59.023Z,63.34
2022-09-23T09:19:57.552Z,63.04
2022-09-23T09:22:50.991Z,62.68
2022-09-23T09:25:41.046Z,62.58
2022-09-23T09:28:18.946Z,62.66
2022-09-23T09:30:55.843Z,62.11
2022-09-23T09:33:30.509Z,61.57
2022-09-23T09:36:19.769Z,61.57
2022-09-23T09:38:48.427Z,61.27
2022-09-23T09:41:21.328Z,61.07
2022-09-23T09:43:57.584Z,60.69
2022-09-23T09:46:51.590Z,60.47
2022-09-23T09:49:30.923Z,60.05
2022-09-23T09:52:23.778Z,60.28
2022-09-23T09:54:52.999Z,60.06
2022-09-23T09:57:35.049Z,60.00
2022-09-23T10:00:36.205Z,60.27
2022-09-23T10:03:24.139Z,60.33
2022-09-23T10:05:54.499Z,60.17
2022-09-23T10:08:27.713Z,60.45
2022-09-23T10:11:04.966Z,59.71
2022-09-23T10:13:33.376Z,59.44
2022-09-23T10:16:03.937Z,59.10
2022-09-23T10:18:38.507Z,58.72
2022-09-23T10:21:13.418Z,58.46
2022-09-23T10:23:44.935Z,58.24
2022-09-23T10:26:24.130Z,57.75
2022-09-23T10:29:06.609Z,58.06
2022-09-23T10:31:38.575Z,57.81
2022-09-23T10:34:27.349Z,57.59
2022-09-23T10:37:04.725Z,57.41
2022-09-23T10:39:50.319Z,57.24
2022-09-23T10:42:45.970Z,57.08
2022-09-23T10:45:43.308Z,56.90
2022-09-23T10:48:38.439Z,56.38
2022-09-23T10:51:26.962Z,56.29
2022-09-23T10:54:02.478Z,56.57
2022-09-23T10:56:37.347Z,56.57
2022-09-23T10:59:29.167Z,56.37
2022-09-23T11:02:16.370Z,56.97
2022-09-23T11:05:20.919Z,56.83
2022-09-23T11:08:00.642Z,56.74
2022-09-23T11:11:08.879Z,56.31
2022-09-23T11:13:56.872Z,56.57
2022-09-23T11:16:42.718Z,55.81
2022-09-23T11:19:45.847Z,55.67
2022-09-23T11:22:38.097Z,55.80
2022-09-23T11:25:34.753Z,56.04
2022-09-23T11:28:42.404Z,55.67
2022-09-23T11:31:27.970Z,55.91
2022-09-23T11:34:16.092Z,56.24
2022-09-23T11:36:51.771Z,55.97
2022-09-23T11:39:25.124Z,56.09
2022-09-23T11:41:57.972Z,56.22
2022-09-23T11:44:33.555Z,55.86
2022-09-23T11:47:08.680Z,55.38
2022-09-23T11:49:42.150Z,55.72
2022-09-23T11:52:19.617Z,54.90
2022-09-23T11:54:54.124Z,54.68
2022-09-23T11:57:39.939Z,54.66
2022-09-23T12:00:19.272Z,54.27
2022-09-23T12:03:06.131Z,54.31
2022-09-23T12:05:40.374Z,53.90
2022-09-23T12:08:25.470Z,53.39
2022-09-23T12:11:02.094Z,52.85
2022-09-23T12:13:42.925Z,53.12
2022-09-23T12:16:45.352Z,53.02
2022-09-23T12:19:33.166Z,53.04
2022-09-23T12:22:27.816Z,52.82
2022-09-23T12:25:00.904Z,52.61
2022-09-23T12:27:38.555Z,52.71
2022-09-23T12:30:16.423Z,53.04
2022-09-23T12:32:45.194Z,52.97
2022-09-23T12:35:24.194Z,53.05
2022-09-23T12:37:53.325Z,52.46
2022-09-23T12:40:28.646Z,52.62
2022-09-23T12:42:57.082Z,52.00
2022-09-23T12:45:39.213Z,52.18
2022-09-23T12:48:44.849Z,52.08
2022-09-23T12:51:20.263Z,51.86
2022-09-23T12:53:58.442Z,52.26
2022-09-23T12:56:45.268Z,52.04
2022-09-23T12:59:27.306Z,51.87
2022-09-23T13:01:58.033Z,52.03
2022-09-23T13:05:03.799Z,51.92
2022-09-23T13:07:34.041Z,52.15
2022-09-23T13:10:13.750Z,51.69
2022-09-23T13:12:45.217Z,51.42
2022-09-23T13:15:30.753Z,51.43
2022-09-23T13:18:52.456Z,51.72
2022-09-23T13:22:08.888Z,51.53
2022-09-23T13:24:42.277Z,51.32
2022-09-23T13:27:22.282Z,51.09
2022-09-23T13:29:58.077Z,51.82
2022-09-23T13:32:32.787Z,51.96
2022-09-23T13:35:05.494Z,52.13
2022-09-23T13:37:44.936Z,52.46
2022-09-23T13:40:24.743Z,53.07
2022-09-23T13:42:58.539Z,53.12
2022-09-23T13:45:30.830Z,53.36
2022-09-23T13:48:06.055Z,53.27
2022-09-23T13:50:35.399Z,53.74
2022-09-23T13:53:10.735Z,53.98
2022-09-23T13:55:41.288Z,53.88
2022-09-23T13:58:19.041Z,54.45
2022-09-23T14:00:48.325Z,54.32
2022-09-23T14:03:26.518Z,54.45
2022-09-23T14:05:56.331Z,54.63
2022-09-23T14:08:26.583Z,54.50
2022-09-23T14:10:55.582Z,54.39
2022-09-23T14:13:27.474Z,54.25
2022-09-23T14:15:59.637Z,54.67
2022-09-23T14:18:34.870Z,54.73
2022-09-23T14:21:03.662Z,55.08
2022-09-23T14:23:33.656Z,55.52
2022-09-23T14:26:03.655Z,56.03
2022-09-23T14:28:31.999Z,56.52
2022-09-23T14:31:04.640Z,57.05
2022-09-23T14:33:35.188Z,58.24
2022-09-23T14:36:08.848Z,58.36
2022-09-23T14:38:52.408Z,58.70
2022-09-23T14:41:24.534Z,59.26
2022-09-23T14:43:59.491Z,59.51
2022-09-23T14:46:29.874Z,60.42
2022-09-23T14:49:08.229Z,60.59
2022-09-23T14:51:48.676Z,60.85
2022-09-23T14:54:36.603Z,61.41
2022-09-23T14:57:27.371Z,61.28
2022-09-23T15:00:01.192Z,61.86
2022-09-23T15:02:32.641Z,62.39
2022-09-23T15:05:32.107Z,62.53
2022-09-23T15:08:03.835Z,62.90
2022-09-23T15:10:37.611Z,63.54
2022-09-23T15:13:09.435Z,63.49
2022-09-23T15:15:37.940Z,63.41
2022-09-23T15:18:09.250Z,63.64
2022-09-23T15:20:37.871Z,63.98
2022-09-23T15:23:08.152Z,64.20
2022-09-23T15:25:42.148Z,64.47
2022-09-23T15:28:23.567Z,64.92
2022-09-23T15:30:51.782Z,65.32
2022-09-23T15:33:24.999Z,65.57
2022-09-23T15:35:53.242Z,65.72
2022-09-23T15:38:21.947Z,65.90
2022-09-23T15:40:51.933Z,66.32
2022-09-23T15:43:23.226Z,66.60
2022-09-23T15:45:53.687Z,66.97
2022-09-23T15:48:26.525Z,67.11
2022-09-23T15:50:55.905Z,67.21
2022-09-23T15:53:27.075Z,67.53
2022-09-23T15:55:58.530Z,67.81
2022-09-23T15:58:27.633Z,68.14
2022-09-23T16:00:57.622Z,67.34
2022-09-23T16:03:28.498Z,68.49
2022-09-23T16:05:59.974Z,68.73
2022-09-23T16:08:28.550Z,68.80
2022-09-23T16:10:58.362Z,69.05
2022-09-23T16:13:26.491Z,69.23
2022-09-23T16:15:54.627Z,69.36
2022-09-23T16:18:22.881Z,69.68
2022-09-23T16:20:54.706Z,69.64
2022-09-23T16:23:34.511Z,69.99
2022-09-23T16:26:13.882Z,70.04
2022-09-23T16:28:42.110Z,70.61
2022-09-23T16:31:11.206Z,70.78
2022-09-23T16:33:39.847Z,71.22
2022-09-23T16:36:16.288Z,71.28
2022-09-23T16:38:44.469Z,71.51
2022-09-23T16:41:13.998Z,71.66
2022-09-23T16:43:42.353Z,71.79
2022-09-23T16:46:13.409Z,72.06
2022-09-23T16:48:41.963Z,72.17
2022-09-23T16:51:15.589Z,72.22
2022-09-23T16:53:44.171Z,72.35
2022-09-23T16:56:13.958Z,72.33
2022-09-23T16:58:42.206Z,72.73
2022-09-23T17:01:34.163Z,72.86
2022-09-23T17:04:03.643Z,73.15
2022-09-23T17:06:31.886Z,73.12
2022-09-23T17:09:00.105Z,73.06
2022-09-23T17:11:33.970Z,73.25
2022-09-23T17:14:02.509Z,73.40
2022-09-23T17:16:33.823Z,73.47
2022-09-23T17:19:08.441Z,73.40
2022-09-23T17:21:36.867Z,73.55
2022-09-23T17:24:06.674Z,73.67
2022-09-23T17:26:37.675Z,73.73
2022-09-23T17:29:06.160Z,73.95
2022-09-23T17:31:34.513Z,74.14
2022-09-23T17:34:02.740Z,74.45
2022-09-23T17:36:31.349Z,74.48
2022-09-23T17:38:59.497Z,74.44
2022-09-23T17:41:28.207Z,74.59
2022-09-23T17:43:58.633Z,74.47
2022-09-23T17:46:28.822Z,74.88
2022-09-23T17:48:57.111Z,74.77
2022-09-23T17:51:27.811Z,74.93
2022-09-23T17:53:55.980Z,75.23
2022-09-23T17:56:26.669Z,75.01
2022-09-23T17:58:55.350Z,75.35
2022-09-23T18:01:27.190Z,75.30
2022-09-23T18:03:56.547Z,75.60
2022-09-23T18:06:27.007Z,75.83
2022-09-23T18:08:56.054Z,75.70
2022-09-23T18:11:26.878Z,75.73
2022-09-23T18:13:57.797Z,76.21
2022-09-23T18:16:29.232Z,76.17
2022-09-23T18:19:00.319Z,76.45
2022-09-23T18:21:30.874Z,76.33
2022-09-23T18:24:15.673Z,76.59
2022-09-23T18:26:49.653Z,76.73
2022-09-23T18:29:18.494Z,76.95
2022-09-23T18:31:49.218Z,77.29
2022-09-23T18:34:18.525Z,77.37
2022-09-23T18:36:47.041Z,77.50
2022-09-23T18:39:16.088Z,77.71
2022-09-23T18:41:44.284Z,77.92
2022-09-23T18:44:12.471Z,77.47
2022-09-23T18:46:40.533Z,77.95
2022-09-23T18:49:27.723Z,77.90
2022-09-23T18:51:57.393Z,77.87
2022-09-23T18:54:28.661Z,77.96
2022-09-23T18:56:57.575Z,78.00
2022-09-23T18:59:29.015Z,78.09
2022-09-23T19:01:58.095Z,78.39
2022-09-23T19:04:28.942Z,78.99
2022-09-23T19:06:57.909Z,79.02
2022-09-23T19:09:26.259Z,78.88
2022-09-23T19:11:54.417Z,78.94
2022-09-23T19:14:23.433Z,79.07
2022-09-23T19:16:51.948Z,79.34
2022-09-23T19:19:20.163Z,79.20
2022-09-23T19:21:49.589Z,79.64
2022-09-23T19:24:19.969Z,79.75
2022-09-23T19:26:48.568Z,79.60
2022-09-23T19:29:19.346Z,79.49
2022-09-23T19:31:47.588Z,79.66
2022-09-23T19:34:18.964Z,79.79
2022-09-23T19:36:50.219Z,79.85
2022-09-23T19:39:20.962Z,79.69
2022-09-23T19:41:49.840Z,79.82
2022-09-23T19:44:20.053Z,79.39
2022-09-23T19:46:53.417Z,79.56
2022-09-23T19:49:24.598Z,79.61
2022-09-23T19:51:56.547Z,80.20
2022-09-23T19:54:27.135Z,79.73
2022-09-23T19:56:55.984Z,79.92
2022-09-23T19:59:27.504Z,79.99
2022-09-23T20:01:55.774Z,79.71
2022-09-23T20:04:24.181Z,80.27
2022-09-23T20:06:53.702Z,80.10
2022-09-23T20:09:22.150Z,80.29
2022-09-23T20:11:50.955Z,80.09
2022-09-23T20:14:19.780Z,80.16
2022-09-23T20:16:48.321Z,80.17
2022-09-23T20:19:16.590Z,80.27
2022-09-23T20:21:44.757Z,80.49
2022-09-23T20:24:14.241Z,80.17
2022-09-23T20:27:00.209Z,80.58
2022-09-23T20:29:28.767Z,80.50
2022-09-23T20:31:59.186Z,80.23
2022-09-23T20:34:29.650Z,80.87
2022-09-23T20:36:57.766Z,80.94
2022-09-23T20:39:27.342Z,81.12
2022-09-23T20:41:55.459Z,80.59
2022-09-23T20:44:23.857Z,81.11
2022-09-23T20:46:52.027Z,80.73
2022-09-23T20:49:20.760Z,80.77
2022-09-23T20:51:49.827Z,81.17
2022-09-23T20:54:18.994Z,81.01
2022-09-23T20:56:50.193Z,81.15
2022-09-23T20:59:18.629Z,81.27
2022-09-23T21:01:48.076Z,81.22
2022-09-23T21:04:16.571Z,80.98
2022-09-23T21:06:44.776Z,81.44
2022-09-23T21:09:15.458Z,81.47
2022-09-23T21:11:45.468Z,81.14
2022-09-23T21:14:15.124Z,81.18
2022-09-23T21:16:43.464Z,81.87
2022-09-23T21:19:11.640Z,81.32
2022-09-23T21:21:39.903Z,81.60
2022-09-23T21:24:36.063Z,81.40
2022-09-23T21:26:56.389Z,82.12
2022-09-23T21:29:26.092Z,81.95
2022-09-23T21:31:54.654Z,81.58
2022-09-23T21:34:23.372Z,81.65
2022-09-23T21:36:51.535Z,81.68
2022-09-23T21:39:19.712Z,81.84
2022-09-23T21:41:47.812Z,81.98
2022-09-23T21:44:16.155Z,82.27
2022-09-23T21:46:45.681Z,82.35
2022-09-23T21:49:14.249Z,82.45
2022-09-23T21:51:42.562Z,82.15
2022-09-23T21:54:15.437Z,81.91
2022-09-23T21:56:44.282Z,82.12
2022-09-23T21:59:12.914Z,81.91
2022-09-23T22:01:45.332Z,82.16
2022-09-23T22:04:17.442Z,81.93
2022-09-23T22:06:46.770Z,82.08
2022-09-23T22:09:17.941Z,82.16
2022-09-23T22:12:04.451Z,82.23
2022-09-23T22:14:32.838Z,82.62
2022-09-23T22:17:04.952Z,82.58
2022-09-23T22:19:44.234Z,82.65
2022-09-23T22:22:17.739Z,82.43
2022-09-23T22:24:48.005Z,82.77
2022-09-23T22:27:19.000Z,82.64
2022-09-23T22:30:04.787Z,82.79
2022-09-23T22:32:43.669Z,82.85
2022-09-23T22:35:16.466Z,83.46
2022-09-23T22:37:45.207Z,83.18
2022-09-23T22:40:15.873Z,83.77
2022-09-23T22:42:44.872Z,83.18
2022-09-23T22:45:13.972Z,83.31
2022-09-23T22:47:45.931Z,84.02
2022-09-23T22:50:15.057Z,84.03
2022-09-23T22:52:43.552Z,83.58
2022-09-23T22:55:12.143Z,83.58
2022-09-23T22:57:40.326Z,83.60
2022-09-23T23:00:11.247Z,84.07
2022-09-23T23:02:40.082Z,83.84
2022-09-23T23:05:10.469Z,84.33
2022-09-23T23:07:38.644Z,83.60
2022-09-23T23:10:09.944Z,83.77
2022-09-23T23:12:39.484Z,83.56
2022-09-23T23:15:12.591Z,84.06
2022-09-23T23:17:43.499Z,84.24
2022-09-23T23:20:13.224Z,84.18
2022-09-23T23:22:41.366Z,83.85
2022-09-23T23:25:10.677Z,83.93
2022-09-23T23:27:38.763Z,84.48
2022-09-23T23:30:09.322Z,84.28
2022-09-23T23:32:37.446Z,84.56
2022-09-23T23:35:06.866Z,84.53
2022-09-23T23:37:36.399Z,84.11
2022-09-23T23:40:05.555Z,84.55
2022-09-23T23:42:34.814Z,84.36
2022-09-23T23:45:02.947Z,84.27
2022-09-23T23:47:31.072Z,84.23
2022-09-23T23:49:59.317Z,84.52
2022-09-23T23:52:27.443Z,84.77
2022-09-23T23:54:56.939Z,84.56
2022-09-23T23:57:25.174Z,84.69
2022-09-23T23:59:53.323Z,85.32
